createdAt,value
2023-11-25T12:47:57.987Z,94983.78
2023-11-25T12:50:26.322Z,94987.09
2023-11-25T12:53:06.288Z,94991.69
2023-11-25T12:55:36.772Z,94999.94
2023-11-25T12:58:13.511Z,94994.72
2023-11-25T13:00:49.120Z,95010.94
2023-11-25T13:03:32.962Z,95014.69
2023-11-25T13:06:04.604Z,95007.78
2023-11-25T13:08:34.012Z,95011.19
2023-11-25T13:11:02.606Z,95016.44
2023-11-25T13:13:30.562Z,95020.00
2023-11-25T13:15:59.348Z,95033.59
2023-11-25T13:18:27.649Z,95026.31
2023-11-25T13:20:56.615Z,95021.88
2023-11-25T13:23:23.345Z,95017.97
2023-11-25T13:25:51.809Z,95014.06
2023-11-25T13:28:18.815Z,95011.19
2023-11-25T13:30:45.951Z,95009.69
2023-11-25T13:33:13.581Z,95018.03
2023-11-25T13:35:40.359Z,95014.41
2023-11-25T13:38:07.113Z,95020.59
2023-11-25T13:40:34.164Z,95022.31
2023-11-25T13:43:02.265Z,95029.84
2023-11-25T13:45:29.541Z,95029.81
2023-11-25T13:47:57.189Z,95029.03
2023-11-25T13:50:27.618Z,95029.50
2023-11-25T13:52:54.926Z,95031.06
2023-11-25T13:55:21.796Z,95029.28
2023-11-25T13:57:52.178Z,95031.75
2023-11-25T14:00:19.067Z,95045.88
2023-11-25T14:02:49.654Z,95049.94
2023-11-25T14:05:16.694Z,95049.06
2023-11-25T14:07:43.832Z,95042.56
2023-11-25T14:10:10.935Z,95048.22
2023-11-25T14:12:37.694Z,95062.81
2023-11-25T14:15:06.378Z,95055.75
2023-11-25T14:17:33.285Z,95046.72
2023-11-25T14:20:00.158Z,95050.03
2023-11-25T14:22:27.223Z,95045.50
2023-11-25T14:24:53.969Z,95049.16
2023-11-25T14:27:21.031Z,95052.84
2023-11-25T14:29:47.812Z,95046.38
2023-11-25T14:32:14.587Z,95041.13
2023-11-25T14:34:41.370Z,95040.72
2023-11-25T14:37:10.993Z,95040.34
2023-11-25T14:39:44.390Z,95042.75
2023-11-25T14:42:19.220Z,95040.75
2023-11-25T14:44:46.239Z,95042.47
2023-11-25T14:47:13.872Z,95039.03
2023-11-25T14:49:40.800Z,95032.34
2023-11-25T14:52:07.562Z,95031.63
2023-11-25T14:54:34.273Z,95035.44
2023-11-25T14:57:01.984Z,95035.03
2023-11-25T14:59:28.992Z,95032.09
2023-11-25T15:01:55.827Z,95040.50
2023-11-25T15:04:22.724Z,95035.94
2023-11-25T15:06:49.446Z,95037.41
2023-11-25T15:09:16.141Z,95046.91
2023-11-25T15:11:42.960Z,95048.44
2023-11-25T15:14:09.737Z,95044.94
2023-11-25T15:16:36.802Z,95049.75
2023-11-25T15:19:03.853Z,95042.56
2023-11-25T15:21:30.641Z,95047.94
2023-11-25T15:23:57.360Z,95054.59
2023-11-25T15:26:24.431Z,95045.81
2023-11-25T15:28:52.804Z,95045.38
2023-11-25T15:31:19.732Z,95048.50
2023-11-25T15:33:46.535Z,95041.81
2023-11-25T15:36:15.480Z,95037.09
2023-11-25T15:38:43.030Z,95037.34
2023-11-25T15:41:10.989Z,95037.78
2023-11-25T15:43:38.165Z,95041.94
2023-11-25T15:46:05.176Z,95039.22
2023-11-25T15:48:32.098Z,95040.50
2023-11-25T15:50:59.578Z,95028.63
2023-11-25T15:53:26.359Z,95041.53
2023-11-25T15:55:53.328Z,95039.09
2023-11-25T15:58:20.024Z,95040.72
2023-11-25T16:00:46.737Z,95038.97
2023-11-25T16:03:13.544Z,95035.84
2023-11-25T16:05:40.365Z,95033.53
2023-11-25T16:08:07.146Z,95045.09
2023-11-25T16:10:33.955Z,95038.78
2023-11-25T16:13:00.770Z,95051.16
2023-11-25T16:15:28.782Z,95051.47
2023-11-25T16:17:55.936Z,95051.47
2023-11-25T16:20:22.736Z,95052.78
2023-11-25T16:22:49.970Z,95059.22
2023-11-25T16:25:17.000Z,95060.06
2023-11-25T16:27:44.453Z,95055.75
2023-11-25T16:30:11.850Z,95061.13
2023-11-25T16:32:38.665Z,95055.69
2023-11-25T16:35:05.925Z,95063.56
2023-11-25T16:37:32.766Z,95068.25
2023-11-25T16:39:59.511Z,95058.41
2023-11-25T16:42:26.573Z,95068.25
2023-11-25T16:44:53.241Z,95064.06
2023-11-25T16:47:20.178Z,95069.69
2023-11-25T16:49:47.049Z,95070.31
2023-11-25T16:52:14.172Z,95075.34
2023-11-25T16:54:41.915Z,95073.50
2023-11-25T16:57:08.632Z,95072.63
2023-11-25T16:59:38.396Z,95073.09
2023-11-25T17:02:05.552Z,95078.78
2023-11-25T17:04:32.498Z,95076.03
2023-11-25T17:06:59.212Z,95081.22
2023-11-25T17:09:25.968Z,95081.91
2023-11-25T17:11:52.645Z,95084.81
2023-11-25T17:14:19.306Z,95095.25
2023-11-25T17:16:46.022Z,95081.03
2023-11-25T17:19:12.787Z,95084.69
2023-11-25T17:21:39.520Z,95082.41
2023-11-25T17:24:07.011Z,95084.59
2023-11-25T17:26:33.672Z,95089.41
2023-11-25T17:29:00.600Z,95086.91
2023-11-25T17:31:27.479Z,95081.88
2023-11-25T17:33:54.185Z,95087.50
2023-11-25T17:36:20.865Z,95082.47
2023-11-25T17:38:47.549Z,95090.28
2023-11-25T17:41:14.234Z,95096.53
2023-11-25T17:43:41.012Z,95101.47
2023-11-25T17:46:07.764Z,95105.31
2023-11-25T17:48:34.498Z,95099.41
2023-11-25T17:51:01.165Z,95100.41
2023-11-25T17:53:27.851Z,95099.41
2023-11-25T17:55:54.550Z,95093.44
2023-11-25T17:58:21.299Z,95100.66
2023-11-25T18:00:47.982Z,95106.63
2023-11-25T18:03:14.948Z,95104.25
2023-11-25T18:05:41.692Z,95109.84
2023-11-25T18:08:08.406Z,95113.13
2023-11-25T18:10:35.175Z,95107.13
2023-11-25T18:13:02.130Z,95116.47
2023-11-25T18:15:28.826Z,95117.22
2023-11-25T18:17:55.634Z,95120.03
2023-11-25T18:20:22.354Z,95128.50
2023-11-25T18:22:49.010Z,95122.59
2023-11-25T18:25:15.784Z,95121.72
2023-11-25T18:27:42.546Z,95119.84
2023-11-25T18:30:09.309Z,95123.56
2023-11-25T18:32:36.002Z,95116.56
2023-11-25T18:35:02.757Z,95113.50
2023-11-25T18:37:29.640Z,95106.88
2023-11-25T18:39:56.910Z,95111.25
2023-11-25T18:42:23.659Z,95123.53
2023-11-25T18:44:50.390Z,95123.72
2023-11-25T18:47:17.081Z,95127.00
2023-11-25T18:49:43.854Z,95135.81
2023-11-25T18:52:10.505Z,95139.91
2023-11-25T18:54:37.169Z,95135.31
2023-11-25T18:57:03.966Z,95137.31
2023-11-25T18:59:30.660Z,95141.28
2023-11-25T19:01:57.477Z,95147.84
2023-11-25T19:04:24.206Z,95145.66
2023-11-25T19:06:50.962Z,95152.53
2023-11-25T19:09:17.634Z,95151.88
2023-11-25T19:11:44.772Z,95149.47
2023-11-25T19:14:11.498Z,95156.44
2023-11-25T19:16:38.732Z,95160.50
2023-11-25T19:19:06.410Z,95166.25
2023-11-25T19:21:33.127Z,95164.88
2023-11-25T19:23:59.788Z,95171.97
2023-11-25T19:26:26.456Z,95179.97
2023-11-25T19:28:53.207Z,95180.75
2023-11-25T19:31:20.109Z,95181.81
2023-11-25T19:33:47.149Z,95184.81
2023-11-25T19:36:14.063Z,95180.72
2023-11-25T19:38:40.695Z,95189.47
2023-11-25T19:41:07.457Z,95184.97
2023-11-25T19:43:34.127Z,95189.69
2023-11-25T19:46:00.884Z,95186.47
2023-11-25T19:48:27.648Z,95183.47
2023-11-25T19:50:54.370Z,95176.28
2023-11-25T19:53:21.049Z,95178.09
2023-11-25T19:55:47.842Z,95178.13
2023-11-25T19:58:14.577Z,95185.38
2023-11-25T20:00:46.664Z,95187.22
2023-11-25T20:03:20.232Z,95189.91
2023-11-25T20:05:47.214Z,95181.47
2023-11-25T20:08:13.885Z,95182.38
2023-11-25T20:10:40.566Z,95182.34
2023-11-25T20:13:07.220Z,95179.59
2023-11-25T20:15:33.915Z,95183.03
2023-11-25T20:18:00.604Z,95182.53
2023-11-25T20:20:27.258Z,95189.69
2023-11-25T20:22:53.932Z,95192.66
2023-11-25T20:25:20.600Z,95190.78
2023-11-25T20:27:47.329Z,95190.41
2023-11-25T20:30:14.266Z,95190.34
2023-11-25T20:32:41.000Z,95198.03
2023-11-25T20:35:08.115Z,95195.28
2023-11-25T20:37:35.155Z,95195.59
2023-11-25T20:40:01.942Z,95199.66
2023-11-25T20:42:28.589Z,95189.75
2023-11-25T20:44:55.389Z,95191.72
2023-11-25T20:47:22.230Z,95190.50
2023-11-25T20:49:50.180Z,95187.84
2023-11-25T20:52:17.009Z,95200.41
2023-11-25T20:54:45.309Z,95199.03
2023-11-25T20:57:12.256Z,95197.47
2023-11-25T20:59:39.027Z,95197.81
2023-11-25T21:02:05.881Z,95198.25
2023-11-25T21:04:32.721Z,95199.19
2023-11-25T21:06:59.489Z,95197.50
2023-11-25T21:09:28.900Z,95194.25
2023-11-25T21:11:55.620Z,95190.03
2023-11-25T21:14:25.159Z,95207.00
2023-11-25T21:16:52.162Z,95196.44
2023-11-25T21:19:18.914Z,95186.59
2023-11-25T21:21:45.638Z,95189.81
2023-11-25T21:24:12.528Z,95183.50
2023-11-25T21:26:39.597Z,95195.13
2023-11-25T21:29:06.345Z,95187.81
2023-11-25T21:31:33.093Z,95188.53
2023-11-25T21:33:59.799Z,95198.75
2023-11-25T21:36:26.630Z,95197.03
2023-11-25T21:38:53.644Z,95191.00
2023-11-25T21:41:20.698Z,95195.03
2023-11-25T21:43:47.471Z,95190.19
2023-11-25T21:46:14.379Z,95195.66
2023-11-25T21:48:41.201Z,95187.19
2023-11-25T21:51:08.319Z,95193.47
2023-11-25T21:53:35.325Z,95188.56
2023-11-25T21:56:02.221Z,95180.28
2023-11-25T21:58:29.342Z,95172.59
2023-11-25T22:00:56.051Z,95184.94
2023-11-25T22:03:22.995Z,95185.06
2023-11-25T22:05:49.856Z,95183.91
2023-11-25T22:08:16.557Z,95186.09
2023-11-25T22:10:43.308Z,95187.50
2023-11-25T22:13:10.333Z,95184.38
2023-11-25T22:15:37.781Z,95185.44
2023-11-25T22:18:05.806Z,95185.41
2023-11-25T22:20:32.882Z,95199.16
2023-11-25T22:22:59.629Z,95188.91
2023-11-25T22:25:26.398Z,95192.66
2023-11-25T22:27:55.426Z,95190.50
2023-11-25T22:30:22.211Z,95194.91
2023-11-25T22:32:49.256Z,95197.47
2023-11-25T22:35:17.539Z,95207.88
2023-11-25T22:37:44.593Z,95200.50
2023-11-25T22:40:14.149Z,95187.56
2023-11-25T22:42:41.037Z,95190.53
2023-11-25T22:45:08.224Z,95202.78
2023-11-25T22:47:35.166Z,95196.28
2023-11-25T22:50:02.227Z,95203.00
2023-11-25T22:52:29.018Z,95200.09
2023-11-25T22:54:55.906Z,95196.72
2023-11-25T22:57:23.231Z,95197.06
2023-11-25T22:59:49.979Z,95206.31
2023-11-25T23:02:17.337Z,95190.72
2023-11-25T23:04:44.197Z,95194.38
2023-11-25T23:07:10.984Z,95188.47
2023-11-25T23:09:37.783Z,95186.25
2023-11-25T23:12:07.257Z,95194.63
2023-11-25T23:14:34.217Z,95187.88
2023-11-25T23:17:00.989Z,95194.53
2023-11-25T23:19:28.869Z,95185.69
2023-11-25T23:21:55.624Z,95188.19
2023-11-25T23:24:22.445Z,95181.28
2023-11-25T23:26:49.419Z,95182.81
2023-11-25T23:29:16.211Z,95188.53
2023-11-25T23:31:43.327Z,95181.66
2023-11-25T23:34:10.212Z,95188.34
2023-11-25T23:36:37.450Z,95192.03
2023-11-25T23:39:04.568Z,95201.00
2023-11-25T23:41:31.617Z,95199.59
2023-11-25T23:43:58.912Z,95193.78
2023-11-25T23:46:25.699Z,95193.50
2023-11-25T23:48:52.640Z,95187.31
2023-11-25T23:51:19.649Z,95182.84
2023-11-25T23:53:46.433Z,95187.50
2023-11-25T23:56:13.298Z,95178.31
2023-11-25T23:58:40.081Z,95186.03
